sensor_id;sensor_type;location;lat;lon;timestamp;pressure;altitude;pressure_sealevel;temperature;humidity
42511;BME280;28141;51.120;17.114;2023-02-24T00:00:27;100918.95;;;26.60;28.97
42511;BME280;28141;51.120;17.114;2023-02-24T00:03:46;100910.95;;;26.64;28.85
42511;BME280;28141;51.120;17.114;2023-02-24T00:07:00;100910.34;;;26.62;28.82
42511;BME280;28141;51.120;17.114;2023-02-24T00:10:15;100909.49;;;26.61;28.82
42511;BME280;28141;51.120;17.114;2023-02-24T00:13:57;100898.38;;;26.61;28.95
42511;BME280;28141;51.120;17.114;2023-02-24T00:17:13;100898.05;;;26.58;28.95
42511;BME280;28141;51.120;17.114;2023-02-24T00:20:26;100885.62;;;26.60;28.99
42511;BME280;28141;51.120;17.114;2023-02-24T00:23:43;100882.55;;;26.62;29.18
42511;BME280;28141;51.120;17.114;2023-02-24T00:27:23;100880.90;;;26.61;28.98
42511;BME280;28141;51.120;17.114;2023-02-24T00:30:37;100870.27;;;26.58;28.88
42511;BME280;28141;51.120;17.114;2023-02-24T00:33:51;100863.27;;;26.55;29.06
42511;BME280;28141;51.120;17.114;2023-02-24T00:37:09;100874.15;;;26.57;28.68
42511;BME280;28141;51.120;17.114;2023-02-24T00:40:48;100871.61;;;26.55;29.05
42511;BME280;28141;51.120;17.114;2023-02-24T00:44:05;100872.81;;;26.59;29.11
42511;BME280;28141;51.120;17.114;2023-02-24T00:47:21;100861.34;;;26.56;28.84
42511;BME280;28141;51.120;17.114;2023-02-24T00:50:36;100851.14;;;26.61;29.05
42511;BME280;28141;51.120;17.114;2023-02-24T00:54:16;100856.46;;;26.63;29.01
42511;BME280;28141;51.120;17.114;2023-02-24T00:57:30;100845.02;;;26.59;29.11
42511;BME280;28141;51.120;17.114;2023-02-24T01:00:47;100844.43;;;26.57;29.06
42511;BME280;28141;51.120;17.114;2023-02-24T01:04:03;100840.31;;;26.60;29.05
42511;BME280;28141;51.120;17.114;2023-02-24T01:07:42;100836.70;;;26.59;29.07
42511;BME280;28141;51.120;17.114;2023-02-24T01:10:57;100831.13;;;26.59;29.04
42511;BME280;28141;51.120;17.114;2023-02-24T01:14:26;100818.71;;;26.50;28.88
42511;BME280;28141;51.120;17.114;2023-02-24T01:18:06;100826.66;;;26.58;29.17
42511;BME280;28141;51.120;17.114;2023-02-24T01:21:23;100811.68;;;26.59;29.30
42511;BME280;28141;51.120;17.114;2023-02-24T01:24:38;100816.40;;;26.59;29.08
42511;BME280;28141;51.120;17.114;2023-02-24T01:27:53;100814.70;;;26.58;29.01
42511;BME280;28141;51.120;17.114;2023-02-24T01:31:32;100815.45;;;26.53;29.20
42511;BME280;28141;51.120;17.114;2023-02-24T01:34:49;100808.21;;;26.52;29.13
42511;BME280;28141;51.120;17.114;2023-02-24T01:38:04;100816.53;;;26.52;29.04
42511;BME280;28141;51.120;17.114;2023-02-24T01:41:21;100814.36;;;26.54;28.92
42511;BME280;28141;51.120;17.114;2023-02-24T01:45:06;100805.77;;;26.56;29.20
42511;BME280;28141;51.120;17.114;2023-02-24T01:48:25;100797.69;;;26.54;29.02
42511;BME280;28141;51.120;17.114;2023-02-24T01:51:54;100785.48;;;26.55;29.18
42511;BME280;28141;51.120;17.114;2023-02-24T01:55:44;100793.46;;;26.51;29.24
42511;BME280;28141;51.120;17.114;2023-02-24T01:58:52;100782.12;;;26.53;29.17
42511;BME280;28141;51.120;17.114;2023-02-24T02:02:07;100791.53;;;26.52;29.29
42511;BME280;28141;51.120;17.114;2023-02-24T02:05:45;100778.16;;;26.49;29.32
42511;BME280;28141;51.120;17.114;2023-02-24T02:09:01;100768.71;;;26.50;29.38
42511;BME280;28141;51.120;17.114;2023-02-24T02:12:15;100774.27;;;26.50;29.19
42511;BME280;28141;51.120;17.114;2023-02-24T02:15:31;100772.61;;;26.49;29.14
42511;BME280;28141;51.120;17.114;2023-02-24T02:22:50;100764.59;;;26.36;29.45
42511;BME280;28141;51.120;17.114;2023-02-24T02:30:17;100764.91;;;26.39;29.51
42511;BME280;28141;51.120;17.114;2023-02-24T02:37:30;100752.89;;;26.34;29.61
42511;BME280;28141;51.120;17.114;2023-02-24T02:41:15;100747.16;;;26.40;29.73
42511;BME280;28141;51.120;17.114;2023-02-24T02:48:11;100733.19;;;26.35;29.58
42511;BME280;28141;51.120;17.114;2023-02-24T02:51:33;100737.73;;;26.41;29.65
42511;BME280;28141;51.120;17.114;2023-02-24T02:55:44;100733.27;;;26.40;29.76
42511;BME280;28141;51.120;17.114;2023-02-24T02:58:45;100730.48;;;26.40;29.59
42511;BME280;28141;51.120;17.114;2023-02-24T03:02:02;100728.66;;;26.46;29.87
42511;BME280;28141;51.120;17.114;2023-02-24T03:05:33;100725.22;;;26.39;29.61
42511;BME280;28141;51.120;17.114;2023-02-24T03:09:19;100720.47;;;26.39;29.61
42511;BME280;28141;51.120;17.114;2023-02-24T03:12:37;100719.14;;;26.42;29.74
42511;BME280;28141;51.120;17.114;2023-02-24T03:15:54;100709.89;;;26.36;29.72
42511;BME280;28141;51.120;17.114;2023-02-24T03:19:38;100720.23;;;26.41;29.64
42511;BME280;28141;51.120;17.114;2023-02-24T03:23:01;100711.33;;;26.39;29.71
42511;BME280;28141;51.120;17.114;2023-02-24T03:36:59;100700.41;;;26.21;29.92
42511;BME280;28141;51.120;17.114;2023-02-24T03:40:39;100693.27;;;26.25;29.91
42511;BME280;28141;51.120;17.114;2023-02-24T03:43:56;100687.82;;;26.30;30.00
42511;BME280;28141;51.120;17.114;2023-02-24T03:47:13;100678.64;;;26.29;29.72
42511;BME280;28141;51.120;17.114;2023-02-24T03:50:58;100682.02;;;26.31;29.83
42511;BME280;28141;51.120;17.114;2023-02-24T04:01:45;100682.59;;;26.16;30.06
42511;BME280;28141;51.120;17.114;2023-02-24T04:05:19;100668.17;;;26.19;30.09
42511;BME280;28141;51.120;17.114;2023-02-24T04:12:29;100664.30;;;26.21;29.96
42511;BME280;28141;51.120;17.114;2023-02-24T04:15:50;100654.89;;;26.22;29.90
42511;BME280;28141;51.120;17.114;2023-02-24T04:19:39;100653.55;;;26.24;30.02
42511;BME280;28141;51.120;17.114;2023-02-24T04:22:58;100653.41;;;26.31;30.21
42511;BME280;28141;51.120;17.114;2023-02-24T04:26:17;100647.84;;;26.31;29.49
42511;BME280;28141;51.120;17.114;2023-02-24T04:29:58;100647.95;;;26.36;29.96
42511;BME280;28141;51.120;17.114;2023-02-24T04:33:17;100638.93;;;26.29;29.89
42511;BME280;28141;51.120;17.114;2023-02-24T04:36:32;100636.25;;;26.34;30.05
42511;BME280;28141;51.120;17.114;2023-02-24T04:40:15;100635.90;;;26.30;29.99
42511;BME280;28141;51.120;17.114;2023-02-24T04:43:30;100623.45;;;26.33;29.47
42511;BME280;28141;51.120;17.114;2023-02-24T04:46:44;100626.48;;;26.31;30.33
42511;BME280;28141;51.120;17.114;2023-02-24T04:49:58;100631.94;;;26.26;30.10
42511;BME280;28141;51.120;17.114;2023-02-24T04:53:36;100627.13;;;26.22;30.18
42511;BME280;28141;51.120;17.114;2023-02-24T04:56:51;100616.71;;;26.29;30.28
42511;BME280;28141;51.120;17.114;2023-02-24T05:00:05;100615.72;;;26.35;30.15
42511;BME280;28141;51.120;17.114;2023-02-24T05:03:55;100616.71;;;26.29;30.23
42511;BME280;28141;51.120;17.114;2023-02-24T05:07:08;100612.85;;;26.30;30.54
42511;BME280;28141;51.120;17.114;2023-02-24T05:10:30;100602.33;;;26.32;30.36
42511;BME280;28141;51.120;17.114;2023-02-24T05:14:13;100607.13;;;26.36;30.57
42511;BME280;28141;51.120;17.114;2023-02-24T05:17:28;100600.74;;;26.36;30.87
42511;BME280;28141;51.120;17.114;2023-02-24T05:20:48;100593.99;;;26.32;30.60
42511;BME280;28141;51.120;17.114;2023-02-24T05:24:39;100604.91;;;26.22;31.04
42511;BME280;28141;51.120;17.114;2023-02-24T05:27:53;100603.33;;;26.26;30.97
42511;BME280;28141;51.120;17.114;2023-02-24T05:31:14;100592.00;;;26.27;31.14
42511;BME280;28141;51.120;17.114;2023-02-24T05:34:55;100595.63;;;26.28;31.33
42511;BME280;28141;51.120;17.114;2023-02-24T05:38:09;100587.75;;;26.25;31.29
42511;BME280;28141;51.120;17.114;2023-02-24T05:44:14;100588.94;;;26.45;31.23
42511;BME280;28141;51.120;17.114;2023-02-24T05:47:28;100594.36;;;24.42;33.59
42511;BME280;28141;51.120;17.114;2023-02-24T05:50:50;100605.12;;;21.96;37.29
42511;BME280;28141;51.120;17.114;2023-02-24T05:54:42;100602.66;;;19.61;41.73
42511;BME280;28141;51.120;17.114;2023-02-24T05:58:00;100600.80;;;18.04;45.42
42511;BME280;28141;51.120;17.114;2023-02-24T06:01:19;100592.95;;;17.16;48.48
42511;BME280;28141;51.120;17.114;2023-02-24T06:04:59;100590.73;;;16.90;50.92
42511;BME280;28141;51.120;17.114;2023-02-24T06:08:16;100586.81;;;17.14;52.07
42511;BME280;28141;51.120;17.114;2023-02-24T06:11:30;100594.05;;;17.79;52.15
42511;BME280;28141;51.120;17.114;2023-02-24T06:14:44;100590.72;;;18.11;51.90
42511;BME280;28141;51.120;17.114;2023-02-24T06:18:26;100592.74;;;20.39;49.42
42511;BME280;28141;51.120;17.114;2023-02-24T06:21:41;100582.94;;;22.15;45.88
42511;BME280;28141;51.120;17.114;2023-02-24T06:24:56;100590.00;;;23.69;42.50
42511;BME280;28141;51.120;17.114;2023-02-24T06:28:10;100600.09;;;24.98;38.66
42511;BME280;28141;51.120;17.114;2023-02-24T06:31:48;100598.46;;;25.14;37.09
42511;BME280;28141;51.120;17.114;2023-02-24T06:35:04;100587.50;;;25.19;36.24
42511;BME280;28141;51.120;17.114;2023-02-24T06:38:18;100587.70;;;25.29;35.59
42511;BME280;28141;51.120;17.114;2023-02-24T06:41:33;100587.53;;;25.36;35.32
42511;BME280;28141;51.120;17.114;2023-02-24T06:45:13;100594.93;;;25.30;35.23
42511;BME280;28141;51.120;17.114;2023-02-24T06:48:27;100594.17;;;25.35;35.25
42511;BME280;28141;51.120;17.114;2023-02-24T06:51:41;100592.48;;;25.34;35.03
42511;BME280;28141;51.120;17.114;2023-02-24T06:54:56;100595.85;;;25.36;35.14
42511;BME280;28141;51.120;17.114;2023-02-24T06:58:34;100600.75;;;25.45;34.96
42511;BME280;28141;51.120;17.114;2023-02-24T07:01:48;100599.66;;;25.46;34.40
42511;BME280;28141;51.120;17.114;2023-02-24T07:05:02;100599.86;;;25.57;34.52
42511;BME280;28141;51.120;17.114;2023-02-24T07:08:24;100601.41;;;25.64;34.37
42511;BME280;28141;51.120;17.114;2023-02-24T07:12:05;100604.05;;;25.71;34.75
42511;BME280;28141;51.120;17.114;2023-02-24T07:15:20;100592.60;;;25.67;34.62
42511;BME280;28141;51.120;17.114;2023-02-24T07:18:35;100600.08;;;25.67;34.22
42511;BME280;28141;51.120;17.114;2023-02-24T07:21:57;100597.16;;;25.73;35.15
42511;BME280;28141;51.120;17.114;2023-02-24T07:25:42;100604.72;;;25.78;34.63
42511;BME280;28141;51.120;17.114;2023-02-24T07:28:58;100598.61;;;25.93;34.15
42511;BME280;28141;51.120;17.114;2023-02-24T07:32:19;100596.75;;;25.98;34.04
42511;BME280;28141;51.120;17.114;2023-02-24T07:36:04;100595.66;;;25.99;34.09
42511;BME280;28141;51.120;17.114;2023-02-24T07:39:22;100591.79;;;26.00;34.13
42511;BME280;28141;51.120;17.114;2023-02-24T07:42:36;100581.35;;;26.07;34.45
42511;BME280;28141;51.120;17.114;2023-02-24T07:45:51;100579.95;;;26.05;34.14
42511;BME280;28141;51.120;17.114;2023-02-24T07:49:31;100576.49;;;26.14;33.84
42511;BME280;28141;51.120;17.114;2023-02-24T07:52:46;100581.52;;;26.17;33.39
42511;BME280;28141;51.120;17.114;2023-02-24T07:56:09;100578.48;;;26.19;33.54
42511;BME280;28141;51.120;17.114;2023-02-24T07:59:54;100579.87;;;26.16;33.28
42511;BME280;28141;51.120;17.114;2023-02-24T08:03:08;100580.95;;;26.15;33.42
42511;BME280;28141;51.120;17.114;2023-02-24T08:06:22;100578.24;;;26.21;33.55
42511;BME280;28141;51.120;17.114;2023-02-24T08:09:40;100578.00;;;26.22;33.05
42511;BME280;28141;51.120;17.114;2023-02-24T08:13:34;100566.63;;;26.24;32.98
42511;BME280;28141;51.120;17.114;2023-02-24T08:16:53;100560.09;;;26.30;32.87
42511;BME280;28141;51.120;17.114;2023-02-24T08:20:12;100556.80;;;26.33;33.13
42511;BME280;28141;51.120;17.114;2023-02-24T08:24:00;100557.73;;;26.38;32.91
42511;BME280;28141;51.120;17.114;2023-02-24T08:27:16;100551.39;;;26.43;32.95
42511;BME280;28141;51.120;17.114;2023-02-24T08:30:34;100553.93;;;26.44;33.16
42511;BME280;28141;51.120;17.114;2023-02-24T08:33:51;100547.62;;;26.49;33.02
42511;BME280;28141;51.120;17.114;2023-02-24T08:37:35;100556.41;;;26.63;32.70
42511;BME280;28141;51.120;17.114;2023-02-24T08:40:59;100544.13;;;26.59;32.59
42511;BME280;28141;51.120;17.114;2023-02-24T08:44:17;100548.06;;;26.63;32.43
42511;BME280;28141;51.120;17.114;2023-02-24T08:47:59;100548.48;;;26.71;32.49
42511;BME280;28141;51.120;17.114;2023-02-24T08:51:19;100539.02;;;26.72;32.52
42511;BME280;28141;51.120;17.114;2023-02-24T08:54:40;100539.44;;;26.81;32.48
42511;BME280;28141;51.120;17.114;2023-02-24T08:58:27;100542.21;;;26.81;32.22
42511;BME280;28141;51.120;17.114;2023-02-24T09:01:41;100538.85;;;26.79;32.24
42511;BME280;28141;51.120;17.114;2023-02-24T09:05:06;100536.31;;;26.77;31.98
42511;BME280;28141;51.120;17.114;2023-02-24T09:08:52;100525.91;;;26.68;32.18
42511;BME280;28141;51.120;17.114;2023-02-24T09:12:17;100515.44;;;26.75;32.24
42511;BME280;28141;51.120;17.114;2023-02-24T09:15:36;100505.75;;;26.77;32.07
42511;BME280;28141;51.120;17.114;2023-02-24T09:19:22;100507.43;;;26.78;32.03
42511;BME280;28141;51.120;17.114;2023-02-24T09:22:51;100506.01;;;26.76;31.93
42511;BME280;28141;51.120;17.114;2023-02-24T09:26:18;100496.58;;;26.77;32.05
42511;BME280;28141;51.120;17.114;2023-02-24T09:29:59;100496.80;;;26.92;31.96
42511;BME280;28141;51.120;17.114;2023-02-24T09:33:31;100497.02;;;26.90;31.84
42511;BME280;28141;51.120;17.114;2023-02-24T09:36:51;100496.69;;;26.87;31.84
42511;BME280;28141;51.120;17.114;2023-02-24T09:40:47;100494.65;;;26.99;31.56
42511;BME280;28141;51.120;17.114;2023-02-24T09:44:13;100487.52;;;27.08;31.94
42511;BME280;28141;51.120;17.114;2023-02-24T09:47:37;100480.01;;;27.09;31.75
42511;BME280;28141;51.120;17.114;2023-02-24T09:51:32;100473.97;;;27.17;31.33
42511;BME280;28141;51.120;17.114;2023-02-24T09:54:57;100470.61;;;27.15;31.40
42511;BME280;28141;51.120;17.114;2023-02-24T09:58:35;100462.75;;;27.07;31.22
42511;BME280;28141;51.120;17.114;2023-02-24T10:13:21;100457.00;;;27.13;31.17
42511;BME280;28141;51.120;17.114;2023-02-24T10:16:42;100454.48;;;27.12;31.23
42511;BME280;28141;51.120;17.114;2023-02-24T10:27:47;100454.98;;;27.09;30.98
42511;BME280;28141;51.120;17.114;2023-02-24T10:31:45;100444.20;;;27.12;31.02
42511;BME280;28141;51.120;17.114;2023-02-24T10:35:14;100427.77;;;27.11;30.69
42511;BME280;28141;51.120;17.114;2023-02-24T10:38:28;100428.12;;;27.19;30.76
42511;BME280;28141;51.120;17.114;2023-02-24T10:42:09;100417.84;;;27.20;30.62
42511;BME280;28141;51.120;17.114;2023-02-24T10:45:29;100415.55;;;27.12;30.64
42511;BME280;28141;51.120;17.114;2023-02-24T10:48:52;100408.63;;;27.14;30.61
42511;BME280;28141;51.120;17.114;2023-02-24T10:52:42;100384.47;;;27.20;30.31
42511;BME280;28141;51.120;17.114;2023-02-24T10:56:12;100385.92;;;27.28;30.35
42511;BME280;28141;51.120;17.114;2023-02-24T11:00:15;100392.55;;;27.21;30.23
42511;BME280;28141;51.120;17.114;2023-02-24T11:03:51;100377.83;;;27.26;30.47
42511;BME280;28141;51.120;17.114;2023-02-24T11:07:46;100381.95;;;27.18;30.28
42511;BME280;28141;51.120;17.114;2023-02-24T11:11:15;100362.31;;;27.30;30.20
42511;BME280;28141;51.120;17.114;2023-02-24T11:14:49;100359.50;;;27.25;30.42
42511;BME280;28141;51.120;17.114;2023-02-24T11:18:46;100347.23;;;27.21;30.36
42511;BME280;28141;51.120;17.114;2023-02-24T11:22:04;100336.18;;;27.31;30.63
42511;BME280;28141;51.120;17.114;2023-02-24T11:25:37;100318.41;;;27.37;30.47
42511;BME280;28141;51.120;17.114;2023-02-24T11:32:49;100314.77;;;27.32;30.11
42511;BME280;28141;51.120;17.114;2023-02-24T11:40:04;100305.78;;;27.19;29.81
42511;BME280;28141;51.120;17.114;2023-02-24T11:43:25;100298.03;;;27.26;29.71
42511;BME280;28141;51.120;17.114;2023-02-24T11:46:51;100296.93;;;27.28;30.01
42511;BME280;28141;51.120;17.114;2023-02-24T11:50:50;100298.35;;;27.30;29.49
42511;BME280;28141;51.120;17.114;2023-02-24T11:54:12;100297.18;;;27.21;29.31
42511;BME280;28141;51.120;17.114;2023-02-24T11:57:38;100286.64;;;27.28;29.40
42511;BME280;28141;51.120;17.114;2023-02-24T12:04:55;100278.88;;;27.30;29.64
42511;BME280;28141;51.120;17.114;2023-02-24T12:08:25;100263.94;;;27.41;29.15
42511;BME280;28141;51.120;17.114;2023-02-24T12:19:26;100244.45;;;27.36;29.37
42511;BME280;28141;51.120;17.114;2023-02-24T12:23:08;100248.39;;;27.45;29.73
42511;BME280;28141;51.120;17.114;2023-02-24T12:26:35;100244.24;;;27.53;29.95
42511;BME280;28141;51.120;17.114;2023-02-24T12:44:43;100210.98;;;27.68;29.41
42511;BME280;28141;51.120;17.114;2023-02-24T12:56:10;100196.83;;;27.85;28.95
42511;BME280;28141;51.120;17.114;2023-02-24T12:58:44;100187.12;;;27.97;28.74
42511;BME280;28141;51.120;17.114;2023-02-24T13:02:05;100166.27;;;28.10;28.76
42511;BME280;28141;51.120;17.114;2023-02-24T13:05:50;100168.54;;;28.18;28.42
42511;BME280;28141;51.120;17.114;2023-02-24T13:12:41;100170.49;;;28.23;27.90
42511;BME280;28141;51.120;17.114;2023-02-24T13:16:31;100159.05;;;28.24;28.09
42511;BME280;28141;51.120;17.114;2023-02-24T13:19:46;100142.34;;;28.24;27.60
42511;BME280;28141;51.120;17.114;2023-02-24T13:23:01;100144.02;;;28.36;27.49
42511;BME280;28141;51.120;17.114;2023-02-24T13:26:22;100126.20;;;28.37;27.35
42511;BME280;28141;51.120;17.114;2023-02-24T13:33:37;100115.63;;;28.33;27.60
42511;BME280;28141;51.120;17.114;2023-02-24T13:36:52;100115.05;;;28.37;27.82
42511;BME280;28141;51.120;17.114;2023-02-24T13:40:32;100110.04;;;28.39;27.53
42511;BME280;28141;51.120;17.114;2023-02-24T13:43:53;100099.18;;;28.37;27.34
42511;BME280;28141;51.120;17.114;2023-02-24T13:58:05;100072.14;;;28.48;27.27
42511;BME280;28141;51.120;17.114;2023-02-24T14:01:56;100074.91;;;28.58;27.25
42511;BME280;28141;51.120;17.114;2023-02-24T14:05:18;100076.02;;;28.62;27.12
42511;BME280;28141;51.120;17.114;2023-02-24T14:08:42;100067.40;;;28.63;27.03
42511;BME280;28141;51.120;17.114;2023-02-24T14:12:00;100069.90;;;28.60;26.71
42511;BME280;28141;51.120;17.114;2023-02-24T14:15:44;100066.52;;;28.68;27.05
42511;BME280;28141;51.120;17.114;2023-02-24T14:19:00;100059.84;;;28.74;27.04
42511;BME280;28141;51.120;17.114;2023-02-24T14:22:18;100061.23;;;28.82;26.79
42511;BME280;28141;51.120;17.114;2023-02-24T14:25:36;100067.62;;;28.77;26.83
42511;BME280;28141;51.120;17.114;2023-02-24T14:29:26;100066.53;;;28.73;26.98
42511;BME280;28141;51.120;17.114;2023-02-24T14:32:47;100062.38;;;28.65;26.72
42511;BME280;28141;51.120;17.114;2023-02-24T14:36:03;100058.75;;;28.60;26.83
42511;BME280;28141;51.120;17.114;2023-02-24T14:39:53;100056.00;;;28.40;27.01
42511;BME280;28141;51.120;17.114;2023-02-24T14:43:13;100054.35;;;28.33;27.18
42511;BME280;28141;51.120;17.114;2023-02-24T14:46:27;100050.71;;;28.38;27.21
42511;BME280;28141;51.120;17.114;2023-02-24T14:50:17;100048.76;;;28.23;27.22
42511;BME280;28141;51.120;17.114;2023-02-24T14:53:32;100043.20;;;28.23;26.94
42511;BME280;28141;51.120;17.114;2023-02-24T14:56:49;100041.84;;;28.21;26.90
42511;BME280;28141;51.120;17.114;2023-02-24T15:00:07;100035.12;;;28.12;27.53
42511;BME280;28141;51.120;17.114;2023-02-24T15:03:59;100028.72;;;28.11;27.50
42511;BME280;28141;51.120;17.114;2023-02-24T15:07:23;100019.24;;;28.07;27.56
42511;BME280;28141;51.120;17.114;2023-02-24T15:10:37;100014.51;;;28.03;26.94
42511;BME280;28141;51.120;17.114;2023-02-24T15:14:27;100001.99;;;27.95;27.53
42511;BME280;28141;51.120;17.114;2023-02-24T15:17:42;100003.67;;;27.86;26.87
42511;BME280;28141;51.120;17.114;2023-02-24T15:21:05;99993.65;;;27.85;28.01
42511;BME280;28141;51.120;17.114;2023-02-24T15:24:46;99981.70;;;27.79;27.46
42511;BME280;28141;51.120;17.114;2023-02-24T15:28:02;99991.98;;;27.74;27.19
42511;BME280;28141;51.120;17.114;2023-02-24T15:31:17;99989.19;;;27.74;28.08
42511;BME280;28141;51.120;17.114;2023-02-24T15:34:35;99992.25;;;27.72;27.32
42511;BME280;28141;51.120;17.114;2023-02-24T15:38:23;99993.36;;;27.61;27.34
42511;BME280;28141;51.120;17.114;2023-02-24T15:41:43;99991.08;;;27.48;27.45
42511;BME280;28141;51.120;17.114;2023-02-24T15:44:59;99984.14;;;27.45;27.00
42511;BME280;28141;51.120;17.114;2023-02-24T15:48:42;99979.13;;;27.42;27.32
42511;BME280;28141;51.120;17.114;2023-02-24T15:51:56;99962.98;;;27.39;27.43
42511;BME280;28141;51.120;17.114;2023-02-24T15:55:17;99974.38;;;27.38;27.29
42511;BME280;28141;51.120;17.114;2023-02-24T15:58:32;99960.20;;;27.39;27.22
42511;BME280;28141;51.120;17.114;2023-02-24T16:02:16;99964.10;;;27.33;27.23
42511;BME280;28141;51.120;17.114;2023-02-24T16:05:31;99963.27;;;27.33;27.24
42511;BME280;28141;51.120;17.114;2023-02-24T16:08:47;99945.72;;;27.27;27.37
42511;BME280;28141;51.120;17.114;2023-02-24T16:12:06;99940.45;;;27.20;26.85
42511;BME280;28141;51.120;17.114;2023-02-24T16:15:49;99947.38;;;27.18;27.17
42511;BME280;28141;51.120;17.114;2023-02-24T16:19:03;99932.36;;;27.19;26.97
42511;BME280;28141;51.120;17.114;2023-02-24T16:22:17;99929.02;;;27.17;27.49
42511;BME280;28141;51.120;17.114;2023-02-24T16:25:36;99931.80;;;27.12;27.22
42511;BME280;28141;51.120;17.114;2023-02-24T16:29:17;99921.23;;;27.09;27.07
42511;BME280;28141;51.120;17.114;2023-02-24T16:32:32;99931.22;;;27.05;27.26
42511;BME280;28141;51.120;17.114;2023-02-24T16:35:46;99935.41;;;27.02;27.03
42511;BME280;28141;51.120;17.114;2023-02-24T16:39:01;99928.15;;;26.96;27.22
42511;BME280;28141;51.120;17.114;2023-02-24T16:42:46;99923.97;;;26.94;27.17
42511;BME280;28141;51.120;17.114;2023-02-24T16:46:02;99917.87;;;26.97;27.07
42511;BME280;28141;51.120;17.114;2023-02-24T16:49:18;99928.39;;;26.89;27.44
42511;BME280;28141;51.120;17.114;2023-02-24T16:52:33;99921.43;;;26.82;27.28
42511;BME280;28141;51.120;17.114;2023-02-24T16:56:13;99925.02;;;26.77;27.31
42511;BME280;28141;51.120;17.114;2023-02-24T16:59:28;99917.48;;;26.73;27.15
42511;BME280;28141;51.120;17.114;2023-02-24T17:02:43;99917.22;;;26.69;27.65
42511;BME280;28141;51.120;17.114;2023-02-24T17:05:57;99917.76;;;26.66;27.04
42511;BME280;28141;51.120;17.114;2023-02-24T17:09:39;99924.41;;;26.60;27.44
42511;BME280;28141;51.120;17.114;2023-02-24T17:12:53;99924.11;;;26.57;27.44
42511;BME280;28141;51.120;17.114;2023-02-24T17:16:07;99928.26;;;26.54;27.72
42511;BME280;28141;51.120;17.114;2023-02-24T17:19:21;99924.64;;;26.48;27.56
42511;BME280;28141;51.120;17.114;2023-02-24T17:23:01;99924.59;;;26.43;27.59
42511;BME280;28141;51.120;17.114;2023-02-24T17:26:16;99918.73;;;26.35;27.72
42511;BME280;28141;51.120;17.114;2023-02-24T17:29:30;99910.28;;;26.19;28.02
42511;BME280;28141;51.120;17.114;2023-02-24T17:32:44;99893.36;;;26.16;27.85
42511;BME280;28141;51.120;17.114;2023-02-24T17:36:25;99887.51;;;26.17;28.12
42511;BME280;28141;51.120;17.114;2023-02-24T17:39:39;99885.29;;;26.14;28.10
42511;BME280;28141;51.120;17.114;2023-02-24T17:42:53;99891.37;;;26.06;28.45
42511;BME280;28141;51.120;17.114;2023-02-24T17:46:06;99878.59;;;26.05;28.51
42511;BME280;28141;51.120;17.114;2023-02-24T17:49:47;99873.57;;;26.02;28.47
42511;BME280;28141;51.120;17.114;2023-02-24T17:53:01;99863.27;;;25.98;28.67
42511;BME280;28141;51.120;17.114;2023-02-24T17:56:15;99870.75;;;25.97;28.63
42511;BME280;28141;51.120;17.114;2023-02-24T17:59:29;99858.81;;;25.97;28.68
42511;BME280;28141;51.120;17.114;2023-02-24T18:03:09;99861.88;;;25.95;28.74
42511;BME280;28141;51.120;17.114;2023-02-24T18:06:23;99863.51;;;25.91;28.65
42511;BME280;28141;51.120;17.114;2023-02-24T18:09:37;99857.13;;;25.91;29.02
42511;BME280;28141;51.120;17.114;2023-02-24T18:12:51;99849.91;;;25.90;29.17
42511;BME280;28141;51.120;17.114;2023-02-24T18:16:31;99839.91;;;25.89;28.90
42511;BME280;28141;51.120;17.114;2023-02-24T18:19:45;99843.21;;;25.86;28.93
42511;BME280;28141;51.120;17.114;2023-02-24T18:22:59;99826.05;;;25.89;29.10
42511;BME280;28141;51.120;17.114;2023-02-24T18:26:13;99823.26;;;25.89;29.12
42511;BME280;28141;51.120;17.114;2023-02-24T18:29:54;99822.43;;;25.88;28.98
42511;BME280;28141;51.120;17.114;2023-02-24T18:33:08;99811.33;;;25.88;28.91
42511;BME280;28141;51.120;17.114;2023-02-24T18:36:22;99807.71;;;25.83;29.20
42511;BME280;28141;51.120;17.114;2023-02-24T18:39:36;99806.31;;;25.85;29.36
42511;BME280;28141;51.120;17.114;2023-02-24T18:43:17;99800.23;;;25.83;29.10
42511;BME280;28141;51.120;17.114;2023-02-24T18:46:31;99799.66;;;25.86;28.92
42511;BME280;28141;51.120;17.114;2023-02-24T18:49:45;99805.78;;;25.88;29.14
42511;BME280;28141;51.120;17.114;2023-02-24T18:52:58;99808.28;;;25.85;29.17
42511;BME280;28141;51.120;17.114;2023-02-24T18:56:39;99804.89;;;25.77;29.19
42511;BME280;28141;51.120;17.114;2023-02-24T18:59:53;99807.41;;;25.79;29.26
42511;BME280;28141;51.120;17.114;2023-02-24T19:03:07;99802.43;;;25.81;29.53
42511;BME280;28141;51.120;17.114;2023-02-24T19:06:22;99797.98;;;25.80;29.07
42511;BME280;28141;51.120;17.114;2023-02-24T19:10:06;99786.88;;;25.80;29.26
42511;BME280;28141;51.120;17.114;2023-02-24T19:13:20;99787.15;;;25.78;29.24
42511;BME280;28141;51.120;17.114;2023-02-24T19:16:36;99771.64;;;25.83;29.33
42511;BME280;28141;51.120;17.114;2023-02-24T19:19:50;99772.71;;;25.76;29.12
42511;BME280;28141;51.120;17.114;2023-02-24T19:23:33;99769.66;;;25.73;29.32
42511;BME280;28141;51.120;17.114;2023-02-24T19:26:47;99756.90;;;25.72;29.45
42511;BME280;28141;51.120;17.114;2023-02-24T19:30:04;99754.91;;;25.67;29.42
42511;BME280;28141;51.120;17.114;2023-02-24T19:33:19;99749.91;;;25.64;29.26
42511;BME280;28141;51.120;17.114;2023-02-24T19:37:00;99745.74;;;25.62;29.42
42511;BME280;28141;51.120;17.114;2023-02-24T19:40:14;99734.33;;;25.58;29.10